Time;durP1;ratioP1;P1;durP2;ratioP2;P2;SDS_P1;SDS_P2;PMS_P1;PMS_P2;Temp;Humidity;BMP_temperature;BMP_pressure;BME280_temperature;BME280_humidity;BME280_pressure;Samples;Min_cycle;Max_cycle;Signal;HPM_P1;HPM_P2
2021/09/23 00:00:21;;;;;;;10.90;8.90;;;;;;;9.55;83.81;100920.89;93653;1197;98884;-67
2021/09/23 00:03:01;;;;;;;11.20;9.10;;;;;;;9.57;83.75;100912.22;93694;1196;88025;-69
2021/09/23 00:05:08;;;;;;;11.60;8.70;;;;;;;9.60;83.78;100914.63;93654;1198;95196;-68
2021/09/23 00:07:15;;;;;;;10.70;8.90;;;;;;;9.58;83.78;100916.23;93674;1183;80267;-68
2021/09/23 00:09:19;;;;;;;11.70;8.90;;;;;;;9.58;83.85;100916.66;93690;1197;80970;-69
2021/09/23 00:11:23;;;;;;;9.40;8.30;;;;;;;9.57;83.84;100910.79;93672;1197;97755;-69
2021/09/23 00:13:27;;;;;;;13.90;8.80;;;;;;;9.56;83.90;100902.10;93686;1198;87286;-70
2021/09/23 00:15:33;;;;;;;11.30;8.50;;;;;;;9.58;83.83;100904.77;93640;1196;93494;-65
2021/09/23 00:17:38;;;;;;;10.00;8.30;;;;;;;9.59;83.82;100897.80;93671;1197;79427;-63
2021/09/23 00:19:42;;;;;;;10.10;7.90;;;;;;;9.60;83.87;100896.09;93678;1197;81517;-65
2021/09/23 00:21:46;;;;;;;10.30;8.30;;;;;;;9.63;83.80;100895.17;93666;1196;98154;-69
2021/09/23 00:23:51;;;;;;;12.80;8.40;;;;;;;9.64;83.86;100888.93;93665;1189;87460;-69
2021/09/23 00:25:55;;;;;;;13.10;8.70;;;;;;;9.67;83.82;100887.89;93650;1197;93767;-68
2021/09/23 00:28:05;;;;;;;10.90;9.10;;;;;;;9.69;83.99;100886.20;93735;1197;79449;-68
2021/09/23 00:30:12;;;;;;;11.40;8.30;;;;;;;9.68;84.00;100883.80;93628;1197;81179;-70
2021/09/23 00:32:19;;;;;;;10.50;8.60;;;;;;;9.68;84.00;100880.44;93679;1198;99221;-66
2021/09/23 00:34:27;;;;;;;8.70;7.50;;;;;;;9.69;84.00;100877.23;93718;1198;87809;-64
2021/09/23 00:36:31;;;;;;;8.80;7.60;;;;;;;9.72;83.96;100878.17;93675;1198;92071;-64
2021/09/23 00:38:35;;;;;;;10.50;8.30;;;;;;;9.75;83.98;100873.66;93681;1197;79216;-64
2021/09/23 00:40:42;;;;;;;10.80;8.60;;;;;;;9.77;83.93;100867.70;93692;1196;81754;-68
2021/09/23 00:42:48;;;;;;;11.20;8.60;;;;;;;9.77;83.93;100867.54;93653;1197;97125;-69
2021/09/23 00:44:58;;;;;;;10.10;8.30;;;;;;;9.78;83.93;100861.33;93660;1197;87632;-68
2021/09/23 00:47:02;;;;;;;10.80;8.80;;;;;;;9.79;83.96;100859.56;93710;1198;94860;-70
2021/09/23 00:49:06;;;;;;;10.00;7.80;;;;;;;9.80;83.90;100859.10;93672;1198;79568;-69
2021/09/23 00:51:11;;;;;;;10.50;8.60;;;;;;;9.80;83.90;100852.45;93695;1197;81606;-65
2021/09/23 00:53:18;;;;;;;10.90;8.40;;;;;;;9.79;83.94;100849.05;93689;1197;98967;-63
2021/09/23 00:55:23;;;;;;;13.30;9.30;;;;;;;9.78;83.99;100847.92;93706;1197;87036;-67
2021/09/23 00:57:27;;;;;;;12.20;9.10;;;;;;;9.77;84.00;100846.59;93708;1182;95733;-68
2021/09/23 00:59:35;;;;;;;10.80;8.70;;;;;;;9.74;83.95;100837.30;93691;1198;80452;-69
2021/09/23 01:01:45;;;;;;;10.80;9.10;;;;;;;9.74;83.86;100834.45;93672;1198;80473;-64
2021/09/23 01:03:50;;;;;;;9.80;8.60;;;;;;;9.73;83.92;100830.16;93589;1197;98653;-67
2021/09/23 01:05:54;;;;;;;12.30;9.50;;;;;;;9.72;83.92;100827.73;93565;1198;86688;-65
2021/09/23 01:07:58;;;;;;;10.80;9.40;;;;;;;9.73;83.89;100827.85;93564;1198;94420;-64
2021/09/23 01:10:03;;;;;;;11.70;9.70;;;;;;;9.71;84.02;100825.43;93579;1198;79771;-64
2021/09/23 01:12:10;;;;;;;16.70;11.10;;;;;;;9.71;83.95;100817.50;93695;1198;81411;-68
2021/09/23 01:14:14;;;;;;;13.90;10.20;;;;;;;9.73;83.97;100817.09;93692;1198;99433;-69
2021/09/23 01:16:19;;;;;;;13.80;11.00;;;;;;;9.75;84.03;100812.65;93690;1198;86880;-70
2021/09/23 01:18:23;;;;;;;12.30;10.20;;;;;;;9.77;84.08;100805.31;93697;1198;93471;-69
2021/09/23 01:20:27;;;;;;;11.80;9.40;;;;;;;9.80;84.09;100796.50;93693;1197;78672;-65
2021/09/23 01:22:32;;;;;;;11.70;9.50;;;;;;;9.80;84.05;100792.71;93685;1197;79788;-64
2021/09/23 01:24:39;;;;;;;14.60;10.20;;;;;;;9.81;84.03;100792.54;93691;1198;97467;-65
2021/09/23 01:26:48;;;;;;;13.50;9.70;;;;;;;9.82;83.97;100791.77;93745;1197;87294;-63
2021/09/23 01:28:52;;;;;;;12.40;10.20;;;;;;;9.82;83.90;100786.70;93701;1197;94083;-65
2021/09/23 01:30:56;;;;;;;13.20;10.20;;;;;;;9.80;83.97;100782.67;93674;1198;79005;-69
2021/09/23 01:33:01;;;;;;;16.50;11.40;;;;;;;9.79;84.08;100780.68;93669;1197;81953;-69
2021/09/23 01:35:10;;;;;;;12.60;10.60;;;;;;;9.82;84.03;100779.19;93711;1198;98553;-69
2021/09/23 01:37:15;;;;;;;13.30;10.70;;;;;;;9.82;84.07;100777.28;93652;1197;87757;-68
2021/09/23 01:39:21;;;;;;;13.80;10.40;;;;;;;9.83;83.97;100775.77;93683;1198;93616;-69
2021/09/23 01:41:28;;;;;;;14.50;10.70;;;;;;;9.84;84.01;100770.60;93615;1198;81044;-64
2021/09/23 01:43:32;;;;;;;14.20;10.80;;;;;;;9.84;83.98;100763.48;93685;1198;82292;-64
2021/09/23 01:45:39;;;;;;;11.70;10.00;;;;;;;9.83;83.99;100759.70;93676;1198;98228;-64
2021/09/23 01:47:44;;;;;;;15.20;10.80;;;;;;;9.80;84.01;100751.10;93640;1196;87291;-63
2021/09/23 01:49:48;;;;;;;14.50;11.20;;;;;;;9.76;84.01;100751.13;93577;1198;93072;-64
2021/09/23 01:51:52;;;;;;;16.60;11.30;;;;;;;9.70;84.01;100746.22;93627;1197;80143;-64
2021/09/23 01:53:57;;;;;;;13.00;11.00;;;;;;;9.69;84.12;100747.38;93702;1197;82168;-65
2021/09/23 01:56:01;;;;;;;14.80;12.00;;;;;;;9.66;84.20;100750.72;93692;1198;96694;-64
2021/09/23 01:58:05;;;;;;;16.70;12.80;;;;;;;9.65;84.27;100752.84;93713;1197;85419;-65
2021/09/23 02:00:12;;;;;;;14.30;11.30;;;;;;;9.70;84.25;100748.04;93667;1198;94491;-63
2021/09/23 02:02:16;;;;;;;16.00;12.10;;;;;;;9.69;84.25;100744.27;93696;1198;79828;-69
2021/09/23 02:04:23;;;;;;;15.80;11.90;;;;;;;9.68;84.25;100741.91;93677;1198;79743;-69
2021/09/23 02:06:27;;;;;;;14.90;12.60;;;;;;;9.69;84.30;100747.78;93631;1197;98260;-68
2021/09/23 02:08:32;;;;;;;16.00;12.80;;;;;;;9.69;84.33;100742.88;93683;1198;88562;-69
2021/09/23 02:10:36;;;;;;;15.60;12.50;;;;;;;9.67;84.26;100746.23;93717;1197;93275;-69
2021/09/23 02:12:41;;;;;;;16.10;12.80;;;;;;;9.65;84.27;100741.33;93619;1197;80776;-70
2021/09/23 02:14:45;;;;;;;15.90;12.70;;;;;;;9.64;84.38;100744.73;93642;1197;80474;-68
2021/09/23 02:16:49;;;;;;;16.90;13.80;;;;;;;9.66;84.40;100747.14;93642;1197;97239;-64
2021/09/23 02:18:53;;;;;;;18.80;13.40;;;;;;;9.66;84.34;100749.34;93701;1196;86727;-63
2021/09/23 02:20:57;;;;;;;17.20;13.50;;;;;;;9.65;84.41;100755.54;93672;1197;94959;-69
2021/09/23 02:23:01;;;;;;;19.50;14.30;;;;;;;9.62;84.47;100754.06;93669;1197;80212;-70
2021/09/23 02:25:08;;;;;;;16.80;13.30;;;;;;;9.63;84.42;100756.73;93643;1197;81136;-68
2021/09/23 02:27:12;;;;;;;16.70;13.70;;;;;;;9.65;84.47;100753.17;93655;1197;98090;-71
2021/09/23 02:29:16;;;;;;;18.30;13.30;;;;;;;9.69;84.51;100744.12;93667;1196;87470;-69
2021/09/23 02:31:20;;;;;;;19.10;14.30;;;;;;;9.72;84.50;100735.21;93650;1197;94878;-69
2021/09/23 02:33:25;;;;;;;20.60;15.30;;;;;;;9.77;84.56;100733.34;93615;1197;79719;-68
2021/09/23 02:35:30;;;;;;;17.50;14.70;;;;;;;9.75;84.49;100737.82;93661;1197;80878;-70
2021/09/23 02:37:35;;;;;;;18.30;14.30;;;;;;;9.74;84.46;100730.09;93675;1196;99067;-70
2021/09/23 02:39:39;;;;;;;17.70;14.00;;;;;;;9.73;84.47;100726.83;93674;1197;87426;-68
2021/09/23 02:41:43;;;;;;;19.00;14.40;;;;;;;9.72;84.51;100727.60;93643;1197;93742;-63
2021/09/23 02:43:47;;;;;;;19.10;14.20;;;;;;;9.72;84.42;100726.97;93578;1198;79477;-64
2021/09/23 02:45:51;;;;;;;20.00;14.70;;;;;;;9.70;84.31;100729.63;93701;1197;81262;-68
2021/09/23 02:47:56;;;;;;;18.80;14.50;;;;;;;9.64;84.32;100730.83;93666;1196;97052;-69
2021/09/23 02:50:00;;;;;;;20.80;15.50;;;;;;;9.60;84.41;100722.48;93666;1197;87434;-69
2021/09/23 02:52:05;;;;;;;18.90;14.40;;;;;;;9.60;84.52;100715.88;93626;1197;94687;-65
2021/09/23 02:54:09;;;;;;;20.00;14.40;;;;;;;9.59;84.56;100714.20;93693;1197;80827;-64
2021/09/23 02:56:13;;;;;;;19.30;15.10;;;;;;;9.60;84.58;100711.59;93676;1197;81106;-64
2021/09/23 02:58:18;;;;;;;19.80;15.20;;;;;;;9.63;84.67;100712.84;93692;1197;97821;-64
2021/09/23 03:00:22;;;;;;;20.10;15.30;;;;;;;9.60;84.78;100713.52;93708;1197;85927;-66
2021/09/23 03:02:26;;;;;;;22.40;15.70;;;;;;;9.57;84.67;100714.76;93707;1196;93204;-64
2021/09/23 03:04:30;;;;;;;19.30;14.60;;;;;;;9.56;84.65;100721.90;93649;1198;81424;-65
2021/09/23 03:06:34;;;;;;;22.20;16.40;;;;;;;9.56;84.74;100722.77;93688;1197;80647;-64
2021/09/23 03:08:39;;;;;;;19.70;15.60;;;;;;;9.58;84.77;100721.86;93706;1196;97765;-64
2021/09/23 03:10:43;;;;;;;19.70;15.30;;;;;;;9.60;84.76;100723.02;93736;1197;87061;-70
2021/09/23 03:12:47;;;;;;;21.00;15.00;;;;;;;9.64;84.86;100721.02;93707;1197;93851;-69
2021/09/23 03:14:51;;;;;;;21.60;16.50;;;;;;;9.66;84.90;100718.95;93652;1198;79705;-70
2021/09/23 03:16:55;;;;;;;20.60;15.70;;;;;;;9.65;84.92;100715.45;93671;1197;80887;-65
2021/09/23 03:18:59;;;;;;;20.90;16.00;;;;;;;9.65;84.87;100712.45;93677;1197;97985;-64
2021/09/23 03:21:07;;;;;;;20.90;16.80;;;;;;;9.65;84.88;100707.96;93724;1197;86622;-69
2021/09/23 03:23:11;;;;;;;19.20;15.30;;;;;;;9.65;84.96;100701.97;93717;1198;94075;-68
2021/09/23 03:25:21;;;;;;;21.40;15.90;;;;;;;9.66;84.88;100698.05;93675;1196;79790;-67
2021/09/23 03:27:25;;;;;;;22.40;16.90;;;;;;;9.68;84.85;100694.97;93682;1197;82151;-65
2021/09/23 03:29:29;;;;;;;21.90;16.00;;;;;;;9.69;84.88;100686.94;93652;1197;98023;-64
2021/09/23 03:31:35;;;;;;;22.50;15.60;;;;;;;9.70;84.91;100681.77;93659;1197;86629;-67
2021/09/23 03:33:39;;;;;;;19.70;15.00;;;;;;;9.72;85.06;100674.43;93659;1196;93305;-68
2021/09/23 03:35:43;;;;;;;21.70;15.90;;;;;;;9.73;85.07;100663.23;93644;1198;78058;-65
2021/09/23 03:37:47;;;;;;;21.60;15.20;;;;;;;9.73;85.08;100660.89;93675;1197;81758;-64
2021/09/23 03:39:54;;;;;;;19.50;14.70;;;;;;;9.72;85.04;100662.64;93697;1197;97501;-63
2021/09/23 03:41:58;;;;;;;20.10;15.00;;;;;;;9.75;85.06;100661.75;93671;1197;87342;-64
2021/09/23 03:44:03;;;;;;;21.20;16.80;;;;;;;9.77;85.04;100663.73;93684;1196;92707;-64
2021/09/23 03:46:07;;;;;;;19.40;15.00;;;;;;;9.77;85.01;100663.54;93668;1198;78975;-69
2021/09/23 03:48:11;;;;;;;19.20;15.00;;;;;;;9.78;85.03;100660.33;93711;1198;81477;-68
2021/09/23 03:50:19;;;;;;;22.50;16.30;;;;;;;9.81;84.98;100654.44;93649;1198;98549;-69
2021/09/23 03:52:23;;;;;;;24.70;16.40;;;;;;;9.80;84.96;100656.10;93683;1197;87817;-68
2021/09/23 03:54:30;;;;;;;25.10;15.30;;;;;;;9.79;84.95;100649.83;93655;1197;95444;-69
2021/09/23 03:56:34;;;;;;;21.20;15.90;;;;;;;9.82;84.95;100654.66;93662;1197;79159;-69
2021/09/23 03:58:38;;;;;;;21.70;15.10;;;;;;;9.83;84.88;100652.85;93665;1197;81118;-68
2021/09/23 04:00:43;;;;;;;20.40;15.20;;;;;;;9.81;84.86;100650.29;93641;1198;98744;-64
2021/09/23 04:02:47;;;;;;;20.50;15.50;;;;;;;9.78;84.85;100648.12;93649;1198;86946;-65
2021/09/23 04:04:51;;;;;;;23.80;15.90;;;;;;;9.77;84.94;100650.55;93609;1198;93815;-64
2021/09/23 04:06:56;;;;;;;20.00;14.80;;;;;;;9.76;84.94;100645.16;93663;1197;80147;-65
2021/09/23 04:09:00;;;;;;;20.90;15.40;;;;;;;9.76;84.99;100640.80;93676;1196;81695;-64
2021/09/23 04:11:04;;;;;;;22.70;15.50;;;;;;;9.80;85.10;100637.52;93711;1197;98715;-70
2021/09/23 04:13:08;;;;;;;21.50;15.70;;;;;;;9.82;85.06;100637.10;93683;1198;88049;-68
2021/09/23 04:15:18;;;;;;;183.40;112.30;;;;;;;9.84;85.03;100632.83;93666;1198;94855;-68
2021/09/23 04:17:23;;;;;;;45.40;31.00;;;;;;;9.86;85.07;100630.11;93713;1198;79755;-64
2021/09/23 04:19:28;;;;;;;28.80;21.50;;;;;;;9.86;85.05;100624.44;93648;1198;81841;-64
2021/09/23 04:21:33;;;;;;;21.90;15.70;;;;;;;9.88;85.04;100621.81;93671;1197;97008;-64
2021/09/23 04:23:37;;;;;;;21.40;15.80;;;;;;;9.88;85.06;100624.02;93691;1198;86612;-65
2021/09/23 04:25:47;;;;;;;19.70;14.40;;;;;;;9.93;85.02;100624.77;93641;1197;93517;-64
2021/09/23 04:27:52;;;;;;;18.70;14.80;;;;;;;9.94;85.01;100621.39;93657;1198;79154;-65
2021/09/23 04:29:59;;;;;;;19.00;13.90;;;;;;;9.97;85.05;100612.36;93658;1198;80757;-64
2021/09/23 04:32:04;;;;;;;17.40;13.90;;;;;;;9.96;84.96;100614.08;93636;1198;98857;-69
2021/09/23 04:34:08;;;;;;;18.90;13.90;;;;;;;9.95;84.90;100613.77;93731;1198;88209;-69
2021/09/23 04:36:12;;;;;;;19.20;13.80;;;;;;;9.92;84.97;100610.98;93659;1197;94237;-68
2021/09/23 04:38:18;;;;;;;17.40;13.40;;;;;;;9.95;84.96;100603.80;93674;1198;78249;-69
2021/09/23 04:40:23;;;;;;;17.90;14.00;;;;;;;9.94;84.95;100604.08;93679;1197;81857;-64
2021/09/23 04:42:30;;;;;;;16.90;13.60;;;;;;;9.95;84.96;100609.23;93640;1197;98469;-64
2021/09/23 04:44:34;;;;;;;20.70;14.30;;;;;;;9.93;84.98;100608.52;93640;1197;87702;-63
2021/09/23 04:46:38;;;;;;;17.40;13.60;;;;;;;9.96;84.97;100612.67;93644;1198;94091;-69
2021/09/23 04:48:42;;;;;;;18.00;13.70;;;;;;;10.00;85.02;100611.45;93644;1198;79510;-68
2021/09/23 04:50:47;;;;;;;19.60;13.10;;;;;;;10.03;84.93;100605.98;93679;1198;80621;-69
2021/09/23 04:52:51;;;;;;;17.60;13.30;;;;;;;10.03;85.06;100599.21;93675;1198;97223;-68
2021/09/23 04:54:55;;;;;;;18.80;13.70;;;;;;;10.07;85.09;100595.71;93662;1197;88090;-69
2021/09/23 04:56:59;;;;;;;18.80;13.10;;;;;;;10.12;85.05;100585.43;93647;1198;94450;-68
2021/09/23 04:59:06;;;;;;;20.20;12.60;;;;;;;10.14;84.98;100583.48;93691;1198;80044;-68
2021/09/23 05:01:11;;;;;;;18.30;13.30;;;;;;;10.11;85.01;100580.01;93662;1197;81713;-64
2021/09/23 05:03:15;;;;;;;18.10;13.50;;;;;;;10.08;85.00;100571.77;93686;1198;98723;-64
2021/09/23 05:05:25;;;;;;;17.50;12.60;;;;;;;10.12;85.10;100566.91;93688;1183;87202;-68
2021/09/23 05:07:29;;;;;;;18.40;13.30;;;;;;;10.18;85.05;100565.36;93656;1198;94413;-69
2021/09/23 05:09:33;;;;;;;18.40;13.50;;;;;;;10.21;85.09;100565.66;93700;1198;78129;-69
2021/09/23 05:11:38;;;;;;;17.80;12.90;;;;;;;10.24;85.14;100565.17;93726;1198;82114;-64
2021/09/23 05:13:42;;;;;;;17.50;13.60;;;;;;;10.26;85.06;100567.74;93722;1198;98032;-64
2021/09/23 05:15:46;;;;;;;18.90;12.50;;;;;;;10.28;85.01;100568.94;93751;1198;87662;-68
2021/09/23 05:17:54;;;;;;;18.00;13.70;;;;;;;10.32;85.12;100563.06;93684;1198;93840;-69
2021/09/23 05:19:58;;;;;;;18.30;13.20;;;;;;;10.37;85.12;100564.97;93688;1198;80239;-68
2021/09/23 05:22:02;;;;;;;17.60;13.40;;;;;;;10.44;85.17;100562.38;93686;1198;80607;-70
2021/09/23 05:24:09;;;;;;;17.30;13.30;;;;;;;10.46;85.12;100556.64;93691;1198;98877;-69
2021/09/23 05:26:13;;;;;;;15.60;12.10;;;;;;;10.50;85.09;100556.90;93682;1198;87651;-65
2021/09/23 05:28:18;;;;;;;18.10;12.70;;;;;;;10.54;85.05;100557.73;93675;1198;94012;-64
2021/09/23 05:30:22;;;;;;;17.90;12.50;;;;;;;10.59;85.01;100555.25;93629;1198;80415;-68
2021/09/23 05:32:29;;;;;;;18.10;13.10;;;;;;;10.66;85.03;100549.77;93705;1197;81034;-71
2021/09/23 05:34:34;;;;;;;15.30;12.50;;;;;;;10.68;85.07;100540.25;93656;1198;97554;-69
2021/09/23 05:36:38;;;;;;;16.00;12.20;;;;;;;10.71;85.07;100534.31;93733;1197;87203;-63
2021/09/23 05:38:42;;;;;;;20.20;13.60;;;;;;;10.70;85.04;100532.50;93681;1198;94857;-64
2021/09/23 05:40:49;;;;;;;16.70;13.30;;;;;;;10.73;84.95;100534.25;93629;1199;79899;-70
2021/09/23 05:42:54;;;;;;;15.90;12.20;;;;;;;10.76;85.02;100537.16;93697;1198;82546;-69
2021/09/23 05:44:58;;;;;;;17.30;12.80;;;;;;;10.75;85.04;100537.85;93664;1197;99010;-71
2021/09/23 05:47:02;;;;;;;19.30;13.10;;;;;;;10.72;85.15;100531.92;93647;1199;87263;-63
2021/09/23 05:49:07;;;;;;;16.10;12.60;;;;;;;10.71;85.11;100533.47;93609;1197;94586;-65
2021/09/23 05:51:11;;;;;;;16.60;12.90;;;;;;;10.76;85.05;100530.38;93640;1197;81216;-64
2021/09/23 05:53:15;;;;;;;16.30;12.90;;;;;;;10.79;85.07;100533.67;93648;1197;82967;-65
2021/09/23 05:55:19;;;;;;;16.10;11.80;;;;;;;10.82;85.10;100539.98;93691;1197;98900;-67
2021/09/23 05:57:24;;;;;;;16.80;13.50;;;;;;;10.87;85.18;100547.12;93644;1197;87206;-69
2021/09/23 05:59:28;;;;;;;17.20;13.20;;;;;;;10.92;85.14;100544.02;93670;1197;94583;-69
2021/09/23 06:01:35;;;;;;;15.20;12.20;;;;;;;10.96;85.15;100542.08;93600;1198;80731;-64
2021/09/23 06:03:40;;;;;;;18.30;13.60;;;;;;;10.99;85.09;100546.15;93692;1196;79485;-64
2021/09/23 06:05:44;;;;;;;20.30;13.70;;;;;;;11.01;85.02;100545.73;93699;1196;98794;-64
2021/09/23 06:07:48;;;;;;;17.00;13.50;;;;;;;11.00;84.98;100545.81;93554;1198;88372;-65
2021/09/23 06:09:52;;;;;;;15.50;12.70;;;;;;;11.02;84.97;100545.27;93606;1198;94040;-64
2021/09/23 06:11:59;;;;;;;17.70;13.20;;;;;;;11.01;85.05;100543.16;93676;1196;80524;-68
2021/09/23 06:14:03;;;;;;;19.10;13.50;;;;;;;11.04;85.05;100545.38;93726;1196;82096;-69
2021/09/23 06:16:08;;;;;;;19.60;14.00;;;;;;;11.08;85.03;100542.23;93663;1197;97475;-64
2021/09/23 06:18:12;;;;;;;17.60;13.20;;;;;;;11.12;85.08;100535.52;93655;1196;88271;-64
2021/09/23 06:20:20;;;;;;;21.30;13.70;;;;;;;11.21;85.07;100534.91;93654;1197;93630;-64
2021/09/23 06:22:24;;;;;;;18.30;13.40;;;;;;;11.29;85.12;100535.66;93646;1197;81158;-68
2021/09/23 06:24:28;;;;;;;19.40;13.30;;;;;;;11.36;84.97;100538.90;93628;1197;81520;-69
2021/09/23 06:26:33;;;;;;;18.70;13.40;;;;;;;11.38;85.02;100533.02;93675;1197;97872;-65
2021/09/23 06:28:37;;;;;;;17.70;13.00;;;;;;;11.40;85.00;100531.39;93635;1196;86979;-63
2021/09/23 06:30:44;;;;;;;19.60;14.10;;;;;;;11.40;84.90;100529.59;93717;1196;95871;-64
2021/09/23 06:32:48;;;;;;;18.70;13.20;;;;;;;11.40;84.86;100529.13;93639;1197;79586;-64
2021/09/23 06:34:56;;;;;;;16.50;12.70;;;;;;;11.43;84.91;100531.19;93658;1197;81339;-63
2021/09/23 06:37:00;;;;;;;18.70;13.40;;;;;;;11.45;84.93;100526.36;93688;1196;97600;-64
2021/09/23 06:39:06;;;;;;;16.30;13.40;;;;;;;11.49;84.91;100524.58;93655;1197;86744;-65
2021/09/23 06:41:11;;;;;;;19.30;14.30;;;;;;;11.55;84.93;100527.10;93676;1196;92997;-69
2021/09/23 06:43:15;;;;;;;25.40;13.70;;;;;;;11.61;84.86;100523.45;93692;1196;79601;-69
2021/09/23 06:45:20;;;;;;;19.70;13.20;;;;;;;11.62;84.84;100516.21;93688;1196;81616;-66
2021/09/23 06:47:24;;;;;;;18.40;13.50;;;;;;;11.65;84.86;100509.91;93636;1196;99302;-64
2021/09/23 06:49:28;;;;;;;18.90;13.90;;;;;;;11.73;84.86;100511.52;93645;1197;87965;-64
2021/09/23 06:51:32;;;;;;;17.10;13.50;;;;;;;11.79;84.97;100512.66;93612;1196;93629;-69
2021/09/23 06:53:36;;;;;;;19.20;13.80;;;;;;;11.89;84.92;100512.55;93650;1197;79853;-70
2021/09/23 06:55:41;;;;;;;18.70;13.70;;;;;;;11.91;84.78;100510.72;93639;1196;81646;-63
2021/09/23 06:57:45;;;;;;;21.90;14.70;;;;;;;11.96;84.64;100506.68;93621;1197;97795;-65
2021/09/23 06:59:52;;;;;;;20.40;13.80;;;;;;;11.99;84.65;100509.74;93656;1197;88056;-69
2021/09/23 07:01:56;;;;;;;20.20;14.80;;;;;;;12.05;84.60;100509.02;93663;1196;94053;-70
2021/09/23 07:04:00;;;;;;;21.70;15.20;;;;;;;12.09;84.59;100503.21;93694;1197;77963;-69
2021/09/23 07:06:08;;;;;;;22.20;14.90;;;;;;;12.13;84.55;100503.54;93660;1197;83440;-69
2021/09/23 07:08:14;;;;;;;22.80;14.40;;;;;;;12.15;84.54;100499.17;93721;1196;97782;-70
2021/09/23 07:10:18;;;;;;;24.30;15.30;;;;;;;12.21;84.43;100487.92;93764;1196;86626;-66
2021/09/23 07:12:22;;;;;;;23.40;14.80;;;;;;;12.29;84.49;100483.07;93664;1197;94595;-66
2021/09/23 07:14:27;;;;;;;22.10;15.10;;;;;;;12.39;84.55;100475.96;93633;1196;78030;-64
2021/09/23 07:16:31;;;;;;;21.20;16.70;;;;;;;12.49;84.47;100477.10;93666;1196;81190;-63
2021/09/23 07:18:36;;;;;;;19.80;15.60;;;;;;;12.61;84.34;100475.47;93660;1197;100010;-64
2021/09/23 07:20:40;;;;;;;21.40;15.90;;;;;;;12.66;84.25;100467.02;93573;1198;87926;-68
2021/09/23 07:22:44;;;;;;;21.30;15.20;;;;;;;12.71;84.19;100461.83;93699;1196;93641;-69
2021/09/23 07:24:49;;;;;;;22.20;16.00;;;;;;;12.81;84.17;100461.08;93673;1196;80520;-69
2021/09/23 07:26:53;;;;;;;19.90;16.00;;;;;;;12.92;84.11;100458.59;93661;1196;82412;-65
2021/09/23 07:28:57;;;;;;;28.20;17.30;;;;;;;13.03;84.07;100459.37;93668;1196;98129;-64
2021/09/23 07:31:02;;;;;;;25.50;18.50;;;;;;;13.09;83.86;100459.46;93659;1196;87434;-70
2021/09/23 07:33:09;;;;;;;23.90;16.00;;;;;;;13.12;83.69;100456.10;93725;1196;94149;-69
2021/09/23 07:35:15;;;;;;;21.80;16.30;;;;;;;13.18;83.61;100459.88;93678;1196;80657;-69
2021/09/23 07:37:19;;;;;;;22.90;17.90;;;;;;;13.24;83.56;100457.05;93681;1196;81739;-64
2021/09/23 07:39:24;;;;;;;24.40;17.30;;;;;;;13.35;83.54;100447.97;93660;1196;98320;-63
2021/09/23 07:41:31;;;;;;;23.40;17.00;;;;;;;13.51;83.58;100445.27;93633;1196;87749;-68
2021/09/23 07:43:35;;;;;;;23.00;16.30;;;;;;;13.67;83.50;100447.59;93654;1196;94633;-69
2021/09/23 07:45:39;;;;;;;23.20;17.90;;;;;;;13.78;83.14;100444.73;93666;1197;80799;-69
2021/09/23 07:47:44;;;;;;;23.70;16.40;;;;;;;13.86;82.97;100444.49;93661;1196;82392;-69
2021/09/23 07:49:48;;;;;;;20.40;17.00;;;;;;;13.89;82.88;100441.13;93693;1198;97595;-68
2021/09/23 07:51:52;;;;;;;22.70;18.40;;;;;;;13.99;82.79;100443.36;93568;1200;87506;-70
2021/09/23 07:53:56;;;;;;;22.80;17.10;;;;;;;14.09;82.75;100438.47;93671;1196;93094;-71
2021/09/23 07:56:01;;;;;;;24.70;17.20;;;;;;;14.17;82.52;100437.48;93687;1196;79671;-64
2021/09/23 07:58:05;;;;;;;23.50;17.40;;;;;;;14.22;82.41;100440.15;93614;1198;82156;-63
2021/09/23 08:00:16;;;;;;;29.10;18.90;;;;;;;14.36;82.55;100439.31;93617;1198;98540;-64
2021/09/23 08:02:23;;;;;;;24.00;18.70;;;;;;;14.76;82.66;100438.86;93641;1198;87954;-69
2021/09/23 08:04:27;;;;;;;22.70;16.90;;;;;;;15.16;82.50;100434.30;93676;1197;93951;-69
2021/09/23 08:06:35;;;;;;;23.40;17.80;;;;;;;15.28;81.54;100433.52;93661;1197;80482;-62
2021/09/23 08:08:39;;;;;;;21.80;17.60;;;;;;;15.25;81.32;100431.61;93691;1197;82131;-64
2021/09/23 08:10:46;;;;;;;24.20;18.60;;;;;;;15.43;81.38;100428.58;93626;1196;98879;-68
2021/09/23 08:12:54;;;;;;;25.80;18.40;;;;;;;15.54;81.07;100429.60;93647;1197;87748;-68
2021/09/23 08:14:59;;;;;;;23.00;17.40;;;;;;;15.59;80.76;100428.36;93651;1199;93259;-68
2021/09/23 08:17:04;;;;;;;25.30;17.80;;;;;;;15.55;80.43;100426.89;93719;1199;78574;-64
2021/09/23 08:19:12;;;;;;;23.00;17.00;;;;;;;15.44;80.01;100423.67;93742;1198;82766;-62
2021/09/23 08:21:16;;;;;;;22.80;16.80;;;;;;;15.46;80.06;100424.09;93668;1198;98969;-69
2021/09/23 08:23:20;;;;;;;23.10;16.20;;;;;;;15.68;80.09;100424.35;93623;1196;86866;-68
2021/09/23 08:25:25;;;;;;;20.50;15.90;;;;;;;15.94;79.87;100422.66;93643;1196;93788;-67
2021/09/23 08:27:29;;;;;;;21.10;15.80;;;;;;;16.03;79.50;100421.07;93624;1199;77788;-69
2021/09/23 08:29:33;;;;;;;22.10;15.90;;;;;;;15.98;79.12;100418.26;93671;1198;80351;-68
2021/09/23 08:31:37;;;;;;;21.70;16.80;;;;;;;15.91;79.01;100416.61;93635;1200;98952;-64
2021/09/23 08:33:42;;;;;;;24.20;16.90;;;;;;;15.91;78.87;100413.55;93667;1197;88243;-66
2021/09/23 08:35:49;;;;;;;24.40;16.30;;;;;;;16.13;79.13;100412.83;93661;1198;94007;-64
2021/09/23 08:37:53;;;;;;;22.80;15.80;;;;;;;16.71;79.65;100406.98;93669;1198;79922;-65
2021/09/23 08:39:57;;;;;;;22.80;15.10;;;;;;;17.44;78.89;100407.20;93651;1199;80796;-65
2021/09/23 08:42:02;;;;;;;18.90;14.50;;;;;;;17.69;78.12;100405.95;93645;1197;97851;-70
2021/09/23 08:44:07;;;;;;;20.90;15.00;;;;;;;17.81;77.67;100401.88;93689;1198;89260;-68
2021/09/23 08:46:11;;;;;;;21.00;14.10;;;;;;;18.00;77.11;100396.40;93643;1198;94674;-67
2021/09/23 08:48:16;;;;;;;27.70;14.60;;;;;;;17.86;76.34;100393.58;93668;1199;80048;-65
2021/09/23 08:50:21;;;;;;;17.60;12.70;;;;;;;17.81;76.12;100389.14;93686;1197;81939;-68
2021/09/23 08:52:25;;;;;;;19.20;13.60;;;;;;;17.64;75.67;100377.36;93637;1198;98837;-68
2021/09/23 08:54:29;;;;;;;18.60;12.80;;;;;;;17.64;75.75;100373.30;93643;1199;88003;-69
2021/09/23 08:56:37;;;;;;;18.90;13.00;;;;;;;17.80;75.76;100372.06;93603;1197;94420;-64
2021/09/23 08:58:42;;;;;;;19.10;13.30;;;;;;;18.02;75.64;100359.69;93677;1198;78531;-64
2021/09/23 09:01:05;;;;;;;16.90;12.20;;;;;;;18.52;75.98;100353.41;93685;1197;82219;-63
2021/09/23 09:03:13;;;;;;;19.00;12.40;;;;;;;19.34;75.65;100344.81;93714;1198;100581;-65
2021/09/23 09:05:21;;;;;;;15.60;11.30;;;;;;;19.63;74.51;100338.20;93643;1198;87474;-65
2021/09/23 09:07:28;;;;;;;15.70;10.30;;;;;;;19.63;73.27;100332.16;93671;1197;93623;-69
2021/09/23 09:09:33;;;;;;;18.30;11.30;;;;;;;19.54;72.14;100325.98;93671;1197;78744;-70
2021/09/23 09:11:41;;;;;;;18.60;10.70;;;;;;;19.64;72.51;100322.42;93672;1197;81654;-68
2021/09/23 09:13:48;;;;;;;16.90;9.80;;;;;;;20.06;72.51;100317.57;93668;1198;96317;-68
2021/09/23 09:15:56;;;;;;;16.00;9.20;;;;;;;20.32;71.50;100313.72;93656;1198;86860;-68
2021/09/23 09:18:16;;;;;;;15.60;10.30;;;;;;;20.10;70.86;100306.76;93716;1198;94232;-68
2021/09/23 09:20:21;;;;;;;14.00;9.90;;;;;;;19.68;70.42;100301.70;93602;1198;80888;-65
2021/09/23 09:22:28;;;;;;;15.40;9.70;;;;;;;19.30;70.22;100298.02;93593;1199;82361;-63
2021/09/23 09:24:45;;;;;;;17.50;9.40;;;;;;;19.08;70.45;100295.70;93594;1198;98945;-63
2021/09/23 09:26:49;;;;;;;14.80;9.20;;;;;;;18.90;70.23;100285.48;93652;1196;87156;-64
2021/09/23 09:28:59;;;;;;;17.50;9.00;;;;;;;18.75;70.50;100282.84;93664;1196;93053;-65
2021/09/23 09:31:07;;;;;;;13.00;9.70;;;;;;;18.66;70.71;100278.23;93618;1196;78322;-63
2021/09/23 09:33:11;;;;;;;13.50;8.80;;;;;;;18.59;70.72;100276.46;93604;1196;82146;-64